首页
METAR-TAF:

METAR-TAF

机场 :

納爾奇克, 俄罗斯

纬度: 43-30-46N, 经度: 043-38-12E, 海拔: 445米

当前天气观测

该预报发布于25分钟前的18:00 UTC
静风
温度 19°C
湿度 64%
气压 1018 hPa
能见度10公里或以上

METAR: URMN 061800Z 00000MPS 9999 NSC 19/12 Q1018 R24/////// NOSIG RMK QFE727

时间: 22:25 (18:25 UTC)

预报

该预报发布于1小时和25分钟前的17:00 UTC
预报有效从06日的 18点(UTC)到 07日的 03点(UTC)
风速6节,风向西转西南
能见度10公里或以上
多云层高于2000英尺

TAF: URMN 061700Z 0618/0703 24003MPS 9999 BKN020

超过4000个机场的气象观测和天气预报(METAR&TAF报告)。

可查询的气象台以黄色和红色小点在地图上表示。

将鼠标移到小点上方,可查看气象台名称。

然后点击查看天气观测和预报。

如需切换地图:点击带黑十字的绿色按钮放大地图;点击带横线的绿色按钮缩小地图;或者点击绿色箭头查看邻近地区的地图。


METAR-TAF: